sensor_id;sensor_type;location;lat;lon;timestamp;P1;durP1;ratioP1;P2;durP2;ratioP2
11681;SDS011;5897;42.640;23.310;2022-11-11T00:00:15;25.25;;;19.58;;
11681;SDS011;5897;42.640;23.310;2022-11-11T00:02:43;25.17;;;19.50;;
11681;SDS011;5897;42.640;23.310;2022-11-11T00:05:11;24.42;;;20.13;;
11681;SDS011;5897;42.640;23.310;2022-11-11T00:07:37;26.33;;;20.25;;
11681;SDS011;5897;42.640;23.310;2022-11-11T00:10:05;24.35;;;19.83;;
11681;SDS011;5897;42.640;23.310;2022-11-11T00:12:32;26.70;;;19.65;;
11681;SDS011;5897;42.640;23.310;2022-11-11T00:14:59;24.02;;;18.98;;
11681;SDS011;5897;42.640;23.310;2022-11-11T00:17:26;24.17;;;19.02;;
11681;SDS011;5897;42.640;23.310;2022-11-11T00:20:12;28.33;;;21.17;;
11681;SDS011;5897;42.640;23.310;2022-11-11T00:22:56;26.02;;;20.85;;
11681;SDS011;5897;42.640;23.310;2022-11-11T00:25:40;28.50;;;20.85;;
11681;SDS011;5897;42.640;23.310;2022-11-11T00:28:06;36.60;;;24.85;;
11681;SDS011;5897;42.640;23.310;2022-11-11T00:30:33;29.83;;;22.63;;
11681;SDS011;5897;42.640;23.310;2022-11-11T00:33:00;33.03;;;22.77;;
11681;SDS011;5897;42.640;23.310;2022-11-11T00:35:28;28.48;;;20.77;;
11681;SDS011;5897;42.640;23.310;2022-11-11T00:38:09;25.90;;;20.08;;
11681;SDS011;5897;42.640;23.310;2022-11-11T00:40:58;27.40;;;20.45;;
11681;SDS011;5897;42.640;23.310;2022-11-11T00:43:25;23.95;;;19.55;;
11681;SDS011;5897;42.640;23.310;2022-11-11T00:45:52;28.45;;;20.75;;
11681;SDS011;5897;42.640;23.310;2022-11-11T00:48:39;28.35;;;20.58;;
11681;SDS011;5897;42.640;23.310;2022-11-11T00:51:24;27.08;;;20.63;;
11681;SDS011;5897;42.640;23.310;2022-11-11T00:53:51;26.33;;;20.63;;
11681;SDS011;5897;42.640;23.310;2022-11-11T00:56:18;29.80;;;21.95;;
11681;SDS011;5897;42.640;23.310;2022-11-11T00:58:45;28.23;;;21.77;;
11681;SDS011;5897;42.640;23.310;2022-11-11T01:01:12;26.27;;;20.27;;
11681;SDS011;5897;42.640;23.310;2022-11-11T01:03:39;27.77;;;20.63;;
11681;SDS011;5897;42.640;23.310;2022-11-11T01:06:06;28.48;;;19.90;;
11681;SDS011;5897;42.640;23.310;2022-11-11T01:08:34;27.88;;;20.90;;
11681;SDS011;5897;42.640;23.310;2022-11-11T01:11:00;27.65;;;21.20;;
11681;SDS011;5897;42.640;23.310;2022-11-11T01:13:28;29.40;;;22.10;;
11681;SDS011;5897;42.640;23.310;2022-11-11T01:15:57;29.27;;;22.58;;
11681;SDS011;5897;42.640;23.310;2022-11-11T01:18:26;32.80;;;23.20;;
11681;SDS011;5897;42.640;23.310;2022-11-11T01:20:57;28.48;;;22.50;;
11681;SDS011;5897;42.640;23.310;2022-11-11T01:23:25;28.73;;;22.10;;
11681;SDS011;5897;42.640;23.310;2022-11-11T01:25:53;27.60;;;20.95;;
11681;SDS011;5897;42.640;23.310;2022-11-11T01:28:19;25.83;;;20.48;;
11681;SDS011;5897;42.640;23.310;2022-11-11T01:30:46;26.55;;;20.95;;
11681;SDS011;5897;42.640;23.310;2022-11-11T01:33:13;27.10;;;21.02;;
11681;SDS011;5897;42.640;23.310;2022-11-11T01:35:40;28.15;;;20.88;;
11681;SDS011;5897;42.640;23.310;2022-11-11T01:38:07;28.13;;;21.42;;
11681;SDS011;5897;42.640;23.310;2022-11-11T01:40:41;26.83;;;21.92;;
11681;SDS011;5897;42.640;23.310;2022-11-11T01:43:16;27.60;;;21.67;;
11681;SDS011;5897;42.640;23.310;2022-11-11T01:45:50;30.83;;;22.02;;
11681;SDS011;5897;42.640;23.310;2022-11-11T01:48:26;29.08;;;22.73;;
11681;SDS011;5897;42.640;23.310;2022-11-11T01:51:17;29.48;;;22.23;;
11681;SDS011;5897;42.640;23.310;2022-11-11T01:53:50;30.10;;;22.58;;
11681;SDS011;5897;42.640;23.310;2022-11-11T01:56:21;32.35;;;23.70;;
11681;SDS011;5897;42.640;23.310;2022-11-11T01:58:50;33.20;;;24.20;;
11681;SDS011;5897;42.640;23.310;2022-11-11T02:01:20;31.95;;;23.65;;
11681;SDS011;5897;42.640;23.310;2022-11-11T02:03:47;33.25;;;24.75;;
11681;SDS011;5897;42.640;23.310;2022-11-11T02:06:30;35.45;;;24.80;;
11681;SDS011;5897;42.640;23.310;2022-11-11T02:08:59;34.22;;;25.27;;
11681;SDS011;5897;42.640;23.310;2022-11-11T02:11:27;34.28;;;25.27;;
11681;SDS011;5897;42.640;23.310;2022-11-11T02:14:15;34.28;;;25.58;;
11681;SDS011;5897;42.640;23.310;2022-11-11T02:17:01;31.58;;;24.17;;
11681;SDS011;5897;42.640;23.310;2022-11-11T02:19:30;34.45;;;25.23;;
11681;SDS011;5897;42.640;23.310;2022-11-11T02:22:07;33.30;;;24.38;;
11681;SDS011;5897;42.640;23.310;2022-11-11T02:24:40;33.88;;;25.63;;
11681;SDS011;5897;42.640;23.310;2022-11-11T02:27:08;30.98;;;24.15;;
11681;SDS011;5897;42.640;23.310;2022-11-11T02:29:37;31.63;;;24.40;;
11681;SDS011;5897;42.640;23.310;2022-11-11T02:32:06;34.00;;;24.95;;
11681;SDS011;5897;42.640;23.310;2022-11-11T02:34:34;33.65;;;25.67;;
11681;SDS011;5897;42.640;23.310;2022-11-11T02:37:02;33.78;;;24.85;;
11681;SDS011;5897;42.640;23.310;2022-11-11T02:39:31;32.10;;;23.67;;
11681;SDS011;5897;42.640;23.310;2022-11-11T02:42:01;28.63;;;22.73;;
11681;SDS011;5897;42.640;23.310;2022-11-11T02:44:34;29.95;;;22.15;;
11681;SDS011;5897;42.640;23.310;2022-11-11T02:47:01;28.42;;;21.45;;
11681;SDS011;5897;42.640;23.310;2022-11-11T02:49:28;28.08;;;20.35;;
11681;SDS011;5897;42.640;23.310;2022-11-11T02:51:55;27.00;;;21.60;;
11681;SDS011;5897;42.640;23.310;2022-11-11T02:54:22;27.67;;;20.67;;
11681;SDS011;5897;42.640;23.310;2022-11-11T02:56:49;27.20;;;20.35;;
11681;SDS011;5897;42.640;23.310;2022-11-11T02:59:36;28.77;;;20.67;;
11681;SDS011;5897;42.640;23.310;2022-11-11T03:02:04;27.27;;;20.75;;
11681;SDS011;5897;42.640;23.310;2022-11-11T03:04:31;25.27;;;20.05;;
11681;SDS011;5897;42.640;23.310;2022-11-11T03:06:58;25.30;;;20.40;;
11681;SDS011;5897;42.640;23.310;2022-11-11T03:09:25;25.83;;;19.98;;
11681;SDS011;5897;42.640;23.310;2022-11-11T03:11:52;26.33;;;19.92;;
11681;SDS011;5897;42.640;23.310;2022-11-11T03:14:19;25.25;;;19.52;;
11681;SDS011;5897;42.640;23.310;2022-11-11T03:16:47;22.75;;;18.58;;
11681;SDS011;5897;42.640;23.310;2022-11-11T03:19:31;23.58;;;18.10;;
11681;SDS011;5897;42.640;23.310;2022-11-11T03:21:58;24.40;;;19.63;;
11681;SDS011;5897;42.640;23.310;2022-11-11T03:24:24;24.92;;;19.98;;
11681;SDS011;5897;42.640;23.310;2022-11-11T03:27:11;23.17;;;19.50;;
11681;SDS011;5897;42.640;23.310;2022-11-11T03:29:37;22.60;;;18.98;;
11681;SDS011;5897;42.640;23.310;2022-11-11T03:32:05;23.67;;;19.40;;
11681;SDS011;5897;42.640;23.310;2022-11-11T03:34:32;22.25;;;18.38;;
11681;SDS011;5897;42.640;23.310;2022-11-11T03:36:59;23.20;;;19.90;;
11681;SDS011;5897;42.640;23.310;2022-11-11T03:39:43;24.38;;;19.90;;
11681;SDS011;5897;42.640;23.310;2022-11-11T03:42:10;24.10;;;19.52;;
11681;SDS011;5897;42.640;23.310;2022-11-11T03:44:37;25.08;;;19.27;;
11681;SDS011;5897;42.640;23.310;2022-11-11T03:47:03;23.15;;;19.60;;
11681;SDS011;5897;42.640;23.310;2022-11-11T03:49:31;23.27;;;19.15;;
11681;SDS011;5897;42.640;23.310;2022-11-11T03:51:58;21.90;;;19.27;;
11681;SDS011;5897;42.640;23.310;2022-11-11T03:54:25;26.33;;;19.83;;
11681;SDS011;5897;42.640;23.310;2022-11-11T03:56:52;24.20;;;20.90;;
11681;SDS011;5897;42.640;23.310;2022-11-11T03:59:40;27.38;;;21.00;;
11681;SDS011;5897;42.640;23.310;2022-11-11T04:02:07;28.88;;;21.33;;
11681;SDS011;5897;42.640;23.310;2022-11-11T04:04:55;26.48;;;20.90;;
11681;SDS011;5897;42.640;23.310;2022-11-11T04:07:39;27.73;;;21.85;;
11681;SDS011;5897;42.640;23.310;2022-11-11T04:10:23;25.52;;;19.70;;
11681;SDS011;5897;42.640;23.310;2022-11-11T04:12:50;27.73;;;21.58;;
11681;SDS011;5897;42.640;23.310;2022-11-11T04:15:50;26.50;;;21.38;;
11681;SDS011;5897;42.640;23.310;2022-11-11T04:18:32;25.45;;;20.25;;
11681;SDS011;5897;42.640;23.310;2022-11-11T04:21:18;25.63;;;20.23;;
11681;SDS011;5897;42.640;23.310;2022-11-11T04:24:03;25.38;;;18.90;;
11681;SDS011;5897;42.640;23.310;2022-11-11T04:26:52;25.85;;;20.63;;
11681;SDS011;5897;42.640;23.310;2022-11-11T04:29:19;26.90;;;20.65;;
11681;SDS011;5897;42.640;23.310;2022-11-11T04:31:58;25.42;;;21.10;;
11681;SDS011;5897;42.640;23.310;2022-11-11T04:34:43;24.50;;;18.50;;
11681;SDS011;5897;42.640;23.310;2022-11-11T04:37:13;27.23;;;21.38;;
11681;SDS011;5897;42.640;23.310;2022-11-11T04:39:40;25.60;;;20.52;;
11681;SDS011;5897;42.640;23.310;2022-11-11T04:42:25;25.77;;;20.23;;
11681;SDS011;5897;42.640;23.310;2022-11-11T04:44:53;21.02;;;16.95;;
11681;SDS011;5897;42.640;23.310;2022-11-11T04:47:51;20.58;;;16.92;;
11681;SDS011;5897;42.640;23.310;2022-11-11T04:50:18;21.30;;;16.42;;
11681;SDS011;5897;42.640;23.310;2022-11-11T04:52:46;23.17;;;17.40;;
11681;SDS011;5897;42.640;23.310;2022-11-11T04:55:14;19.77;;;16.65;;
11681;SDS011;5897;42.640;23.310;2022-11-11T04:57:58;20.35;;;17.48;;
11681;SDS011;5897;42.640;23.310;2022-11-11T05:00:25;21.63;;;17.17;;
11681;SDS011;5897;42.640;23.310;2022-11-11T05:02:52;23.02;;;16.95;;
11681;SDS011;5897;42.640;23.310;2022-11-11T05:05:36;19.85;;;16.10;;
11681;SDS011;5897;42.640;23.310;2022-11-11T05:08:18;20.95;;;17.13;;
11681;SDS011;5897;42.640;23.310;2022-11-11T05:11:02;23.33;;;17.90;;
11681;SDS011;5897;42.640;23.310;2022-11-11T05:13:29;21.83;;;17.35;;
11681;SDS011;5897;42.640;23.310;2022-11-11T05:16:14;27.17;;;20.35;;
11681;SDS011;5897;42.640;23.310;2022-11-11T05:19:01;23.65;;;19.75;;
11681;SDS011;5897;42.640;23.310;2022-11-11T05:21:45;19.63;;;16.60;;
11681;SDS011;5897;42.640;23.310;2022-11-11T05:24:13;26.08;;;19.30;;
11681;SDS011;5897;42.640;23.310;2022-11-11T05:26:57;21.10;;;17.30;;
11681;SDS011;5897;42.640;23.310;2022-11-11T05:29:24;20.27;;;15.82;;
11681;SDS011;5897;42.640;23.310;2022-11-11T05:31:51;19.80;;;16.52;;
11681;SDS011;5897;42.640;23.310;2022-11-11T05:34:17;22.23;;;17.65;;
11681;SDS011;5897;42.640;23.310;2022-11-11T05:36:44;22.33;;;17.80;;
11681;SDS011;5897;42.640;23.310;2022-11-11T05:39:12;21.45;;;16.52;;
11681;SDS011;5897;42.640;23.310;2022-11-11T05:41:39;21.58;;;18.02;;
11681;SDS011;5897;42.640;23.310;2022-11-11T05:44:05;22.05;;;17.48;;
11681;SDS011;5897;42.640;23.310;2022-11-11T05:46:32;21.15;;;18.02;;
11681;SDS011;5897;42.640;23.310;2022-11-11T05:48:59;24.83;;;20.50;;
11681;SDS011;5897;42.640;23.310;2022-11-11T05:51:41;31.58;;;22.25;;
11681;SDS011;5897;42.640;23.310;2022-11-11T05:54:08;28.98;;;23.33;;
11681;SDS011;5897;42.640;23.310;2022-11-11T05:56:36;27.90;;;22.20;;
11681;SDS011;5897;42.640;23.310;2022-11-11T05:59:02;30.35;;;23.90;;
11681;SDS011;5897;42.640;23.310;2022-11-11T06:01:30;27.98;;;22.77;;
11681;SDS011;5897;42.640;23.310;2022-11-11T06:03:56;27.42;;;21.05;;
11681;SDS011;5897;42.640;23.310;2022-11-11T06:06:23;20.13;;;16.38;;
11681;SDS011;5897;42.640;23.310;2022-11-11T06:08:50;18.30;;;16.00;;
11681;SDS011;5897;42.640;23.310;2022-11-11T06:11:17;22.88;;;18.38;;
11681;SDS011;5897;42.640;23.310;2022-11-11T06:13:45;27.83;;;20.90;;
11681;SDS011;5897;42.640;23.310;2022-11-11T06:16:13;26.83;;;20.08;;
11681;SDS011;5897;42.640;23.310;2022-11-11T06:18:39;26.42;;;19.85;;
11681;SDS011;5897;42.640;23.310;2022-11-11T06:21:06;23.60;;;19.45;;
11681;SDS011;5897;42.640;23.310;2022-11-11T06:23:33;28.58;;;20.83;;
11681;SDS011;5897;42.640;23.310;2022-11-11T06:26:00;32.10;;;22.25;;
11681;SDS011;5897;42.640;23.310;2022-11-11T06:28:39;29.13;;;22.45;;
11681;SDS011;5897;42.640;23.310;2022-11-11T06:31:09;26.50;;;21.80;;
11681;SDS011;5897;42.640;23.310;2022-11-11T06:33:38;30.30;;;22.55;;
11681;SDS011;5897;42.640;23.310;2022-11-11T06:36:05;32.38;;;22.88;;
11681;SDS011;5897;42.640;23.310;2022-11-11T06:38:33;31.08;;;23.65;;
11681;SDS011;5897;42.640;23.310;2022-11-11T06:41:00;31.63;;;23.10;;
11681;SDS011;5897;42.640;23.310;2022-11-11T06:43:26;29.08;;;20.08;;
11681;SDS011;5897;42.640;23.310;2022-11-11T06:45:53;30.33;;;24.17;;
11681;SDS011;5897;42.640;23.310;2022-11-11T06:48:22;31.15;;;23.42;;
11681;SDS011;5897;42.640;23.310;2022-11-11T06:50:53;31.60;;;24.75;;
11681;SDS011;5897;42.640;23.310;2022-11-11T06:53:21;32.75;;;23.63;;
11681;SDS011;5897;42.640;23.310;2022-11-11T06:55:50;33.03;;;23.33;;
11681;SDS011;5897;42.640;23.310;2022-11-11T06:58:18;30.08;;;23.75;;
11681;SDS011;5897;42.640;23.310;2022-11-11T07:00:46;34.22;;;23.75;;
11681;SDS011;5897;42.640;23.310;2022-11-11T07:03:14;31.85;;;23.60;;
11681;SDS011;5897;42.640;23.310;2022-11-11T07:05:43;30.58;;;22.35;;
11681;SDS011;5897;42.640;23.310;2022-11-11T07:08:11;30.20;;;22.48;;
11681;SDS011;5897;42.640;23.310;2022-11-11T07:10:42;31.20;;;23.05;;
11681;SDS011;5897;42.640;23.310;2022-11-11T07:13:09;32.42;;;23.55;;
11681;SDS011;5897;42.640;23.310;2022-11-11T07:15:36;29.58;;;23.05;;
11681;SDS011;5897;42.640;23.310;2022-11-11T07:18:03;29.55;;;22.25;;
11681;SDS011;5897;42.640;23.310;2022-11-11T07:20:30;29.33;;;22.00;;
11681;SDS011;5897;42.640;23.310;2022-11-11T07:22:58;22.73;;;18.45;;
11681;SDS011;5897;42.640;23.310;2022-11-11T07:25:25;19.58;;;16.08;;
11681;SDS011;5897;42.640;23.310;2022-11-11T07:27:52;19.90;;;16.13;;
11681;SDS011;5897;42.640;23.310;2022-11-11T07:30:19;20.05;;;15.75;;
11681;SDS011;5897;42.640;23.310;2022-11-11T07:32:46;20.92;;;15.70;;
11681;SDS011;5897;42.640;23.310;2022-11-11T07:35:14;22.42;;;15.95;;
11681;SDS011;5897;42.640;23.310;2022-11-11T07:37:42;20.05;;;16.20;;
11681;SDS011;5897;42.640;23.310;2022-11-11T07:40:11;21.35;;;16.58;;
11681;SDS011;5897;42.640;23.310;2022-11-11T07:42:39;21.23;;;15.88;;
11681;SDS011;5897;42.640;23.310;2022-11-11T07:45:07;20.70;;;15.48;;
11681;SDS011;5897;42.640;23.310;2022-11-11T07:47:35;21.42;;;16.75;;
11681;SDS011;5897;42.640;23.310;2022-11-11T07:50:02;21.20;;;15.27;;
11681;SDS011;5897;42.640;23.310;2022-11-11T07:52:31;19.23;;;15.43;;
11681;SDS011;5897;42.640;23.310;2022-11-11T07:54:58;20.92;;;15.80;;
11681;SDS011;5897;42.640;23.310;2022-11-11T07:57:26;19.42;;;16.00;;
11681;SDS011;5897;42.640;23.310;2022-11-11T07:59:52;21.20;;;15.45;;
11681;SDS011;5897;42.640;23.310;2022-11-11T08:02:19;21.83;;;15.27;;
11681;SDS011;5897;42.640;23.310;2022-11-11T08:04:46;17.52;;;14.40;;
11681;SDS011;5897;42.640;23.310;2022-11-11T08:07:12;20.55;;;14.90;;
11681;SDS011;5897;42.640;23.310;2022-11-11T08:09:39;19.80;;;15.10;;
11681;SDS011;5897;42.640;23.310;2022-11-11T08:12:07;21.25;;;15.48;;
11681;SDS011;5897;42.640;23.310;2022-11-11T08:14:52;19.45;;;14.23;;
11681;SDS011;5897;42.640;23.310;2022-11-11T08:17:19;19.75;;;14.70;;
11681;SDS011;5897;42.640;23.310;2022-11-11T08:19:46;19.98;;;14.32;;
11681;SDS011;5897;42.640;23.310;2022-11-11T08:22:13;20.52;;;16.13;;
11681;SDS011;5897;42.640;23.310;2022-11-11T08:24:39;20.20;;;15.25;;
11681;SDS011;5897;42.640;23.310;2022-11-11T08:27:06;19.73;;;14.40;;
11681;SDS011;5897;42.640;23.310;2022-11-11T08:29:33;20.92;;;15.32;;
11681;SDS011;5897;42.640;23.310;2022-11-11T08:32:01;22.92;;;15.32;;
11681;SDS011;5897;42.640;23.310;2022-11-11T08:34:28;20.15;;;15.65;;
11681;SDS011;5897;42.640;23.310;2022-11-11T08:36:55;20.13;;;15.13;;
11681;SDS011;5897;42.640;23.310;2022-11-11T08:39:22;18.35;;;14.27;;
11681;SDS011;5897;42.640;23.310;2022-11-11T08:41:49;17.83;;;14.05;;
11681;SDS011;5897;42.640;23.310;2022-11-11T08:44:15;19.58;;;14.40;;
11681;SDS011;5897;42.640;23.310;2022-11-11T08:46:42;18.33;;;12.88;;
11681;SDS011;5897;42.640;23.310;2022-11-11T08:49:10;15.85;;;12.98;;
11681;SDS011;5897;42.640;23.310;2022-11-11T08:51:37;17.35;;;13.18;;
11681;SDS011;5897;42.640;23.310;2022-11-11T08:54:04;17.80;;;13.32;;
11681;SDS011;5897;42.640;23.310;2022-11-11T08:56:30;16.83;;;13.23;;
11681;SDS011;5897;42.640;23.310;2022-11-11T08:58:57;18.00;;;13.18;;
11681;SDS011;5897;42.640;23.310;2022-11-11T09:01:24;15.52;;;12.50;;
11681;SDS011;5897;42.640;23.310;2022-11-11T09:03:51;14.98;;;10.77;;
11681;SDS011;5897;42.640;23.310;2022-11-11T09:06:19;14.10;;;11.32;;
11681;SDS011;5897;42.640;23.310;2022-11-11T09:08:45;13.02;;;10.65;;
11681;SDS011;5897;42.640;23.310;2022-11-11T09:11:12;14.95;;;11.30;;
11681;SDS011;5897;42.640;23.310;2022-11-11T09:13:39;11.98;;;9.48;;
11681;SDS011;5897;42.640;23.310;2022-11-11T09:16:06;12.32;;;9.93;;
11681;SDS011;5897;42.640;23.310;2022-11-11T09:18:34;11.88;;;9.15;;
11681;SDS011;5897;42.640;23.310;2022-11-11T09:21:00;15.15;;;11.57;;
11681;SDS011;5897;42.640;23.310;2022-11-11T09:23:28;16.08;;;11.77;;
11681;SDS011;5897;42.640;23.310;2022-11-11T09:25:55;13.80;;;11.40;;
11681;SDS011;5897;42.640;23.310;2022-11-11T09:28:23;13.95;;;11.38;;
11681;SDS011;5897;42.640;23.310;2022-11-11T09:30:49;12.85;;;10.43;;
11681;SDS011;5897;42.640;23.310;2022-11-11T09:33:16;12.35;;;10.43;;
11681;SDS011;5897;42.640;23.310;2022-11-11T09:35:44;13.05;;;10.93;;
11681;SDS011;5897;42.640;23.310;2022-11-11T09:38:10;14.00;;;10.75;;
11681;SDS011;5897;42.640;23.310;2022-11-11T09:40:48;14.10;;;11.32;;
11681;SDS011;5897;42.640;23.310;2022-11-11T09:43:27;14.00;;;10.68;;
11681;SDS011;5897;42.640;23.310;2022-11-11T09:46:09;14.75;;;10.18;;
11681;SDS011;5897;42.640;23.310;2022-11-11T09:48:48;12.60;;;9.63;;
11681;SDS011;5897;42.640;23.310;2022-11-11T09:51:23;16.77;;;9.70;;
11681;SDS011;5897;42.640;23.310;2022-11-11T09:53:56;11.88;;;9.18;;
11681;SDS011;5897;42.640;23.310;2022-11-11T09:56:30;15.57;;;8.93;;
11681;SDS011;5897;42.640;23.310;2022-11-11T09:59:00;11.73;;;9.77;;
11681;SDS011;5897;42.640;23.310;2022-11-11T10:01:32;13.20;;;9.68;;
11681;SDS011;5897;42.640;23.310;2022-11-11T10:04:04;14.00;;;9.80;;
11681;SDS011;5897;42.640;23.310;2022-11-11T10:06:38;12.15;;;10.73;;
11681;SDS011;5897;42.640;23.310;2022-11-11T10:09:06;14.40;;;10.32;;
11681;SDS011;5897;42.640;23.310;2022-11-11T10:11:50;12.27;;;9.90;;
11681;SDS011;5897;42.640;23.310;2022-11-11T10:14:25;10.50;;;9.25;;
11681;SDS011;5897;42.640;23.310;2022-11-11T10:16:58;12.57;;;9.32;;
11681;SDS011;5897;42.640;23.310;2022-11-11T10:19:33;10.57;;;8.75;;
11681;SDS011;5897;42.640;23.310;2022-11-11T10:22:17;9.95;;;8.77;;
11681;SDS011;5897;42.640;23.310;2022-11-11T10:24:48;9.10;;;8.20;;
11681;SDS011;5897;42.640;23.310;2022-11-11T10:27:21;9.10;;;8.00;;
11681;SDS011;5897;42.640;23.310;2022-11-11T10:29:48;10.10;;;8.18;;
11681;SDS011;5897;42.640;23.310;2022-11-11T10:32:16;9.55;;;8.55;;
11681;SDS011;5897;42.640;23.310;2022-11-11T10:34:45;10.15;;;8.82;;
11681;SDS011;5897;42.640;23.310;2022-11-11T10:37:15;9.50;;;7.55;;
11681;SDS011;5897;42.640;23.310;2022-11-11T10:39:49;9.15;;;7.57;;
11681;SDS011;5897;42.640;23.310;2022-11-11T10:42:27;9.77;;;7.80;;
11681;SDS011;5897;42.640;23.310;2022-11-11T10:44:55;8.57;;;7.63;;
11681;SDS011;5897;42.640;23.310;2022-11-11T10:47:28;9.68;;;8.25;;
11681;SDS011;5897;42.640;23.310;2022-11-11T10:50:05;8.48;;;7.68;;
11681;SDS011;5897;42.640;23.310;2022-11-11T10:52:40;8.65;;;7.53;;
11681;SDS011;5897;42.640;23.310;2022-11-11T10:55:18;9.20;;;8.30;;
11681;SDS011;5897;42.640;23.310;2022-11-11T10:57:50;8.35;;;7.45;;
11681;SDS011;5897;42.640;23.310;2022-11-11T11:00:20;6.97;;;6.20;;
11681;SDS011;5897;42.640;23.310;2022-11-11T11:02:48;7.63;;;6.47;;
11681;SDS011;5897;42.640;23.310;2022-11-11T11:05:24;9.88;;;7.07;;
11681;SDS011;5897;42.640;23.310;2022-11-11T11:07:55;8.65;;;7.00;;
11681;SDS011;5897;42.640;23.310;2022-11-11T11:10:26;7.70;;;6.90;;
11681;SDS011;5897;42.640;23.310;2022-11-11T11:13:02;7.68;;;6.88;;
11681;SDS011;5897;42.640;23.310;2022-11-11T11:15:32;7.05;;;6.35;;
11681;SDS011;5897;42.640;23.310;2022-11-11T11:18:05;7.00;;;6.38;;
11681;SDS011;5897;42.640;23.310;2022-11-11T11:20:36;6.95;;;6.30;;
11681;SDS011;5897;42.640;23.310;2022-11-11T11:23:03;8.13;;;6.80;;
11681;SDS011;5897;42.640;23.310;2022-11-11T11:25:30;7.80;;;6.63;;
11681;SDS011;5897;42.640;23.310;2022-11-11T11:28:06;8.68;;;6.38;;
11681;SDS011;5897;42.640;23.310;2022-11-11T11:30:34;6.90;;;6.20;;
11681;SDS011;5897;42.640;23.310;2022-11-11T11:33:02;7.78;;;6.03;;
11681;SDS011;5897;42.640;23.310;2022-11-11T11:35:32;7.43;;;6.07;;
11681;SDS011;5897;42.640;23.310;2022-11-11T11:38:03;7.15;;;5.60;;
11681;SDS011;5897;42.640;23.310;2022-11-11T11:40:44;6.47;;;5.78;;
11681;SDS011;5897;42.640;23.310;2022-11-11T11:43:30;6.68;;;6.05;;
11681;SDS011;5897;42.640;23.310;2022-11-11T11:45:59;6.55;;;5.60;;
11681;SDS011;5897;42.640;23.310;2022-11-11T11:48:31;5.88;;;5.28;;
11681;SDS011;5897;42.640;23.310;2022-11-11T11:51:12;6.40;;;5.00;;
11681;SDS011;5897;42.640;23.310;2022-11-11T11:53:52;8.38;;;5.60;;
11681;SDS011;5897;42.640;23.310;2022-11-11T11:56:35;6.30;;;5.70;;
11681;SDS011;5897;42.640;23.310;2022-11-11T11:59:08;8.52;;;5.72;;
11681;SDS011;5897;42.640;23.310;2022-11-11T12:01:41;6.00;;;5.40;;
11681;SDS011;5897;42.640;23.310;2022-11-11T12:04:25;7.03;;;5.20;;
11681;SDS011;5897;42.640;23.310;2022-11-11T12:07:08;6.30;;;5.43;;
11681;SDS011;5897;42.640;23.310;2022-11-11T12:09:44;8.15;;;5.18;;
11681;SDS011;5897;42.640;23.310;2022-11-11T12:12:23;5.63;;;5.03;;
11681;SDS011;5897;42.640;23.310;2022-11-11T12:15:03;5.78;;;5.18;;
11681;SDS011;5897;42.640;23.310;2022-11-11T12:17:41;6.20;;;4.78;;
11681;SDS011;5897;42.640;23.310;2022-11-11T12:20:16;5.65;;;5.10;;
11681;SDS011;5897;42.640;23.310;2022-11-11T12:25:43;6.60;;;5.38;;
11681;SDS011;5897;42.640;23.310;2022-11-11T12:28:23;6.90;;;5.60;;
11681;SDS011;5897;42.640;23.310;2022-11-11T12:31:01;7.18;;;5.95;;
11681;SDS011;5897;42.640;23.310;2022-11-11T12:33:51;6.07;;;5.47;;
11681;SDS011;5897;42.640;23.310;2022-11-11T12:36:27;7.50;;;5.53;;
11681;SDS011;5897;42.640;23.310;2022-11-11T12:39:02;5.70;;;5.10;;
11681;SDS011;5897;42.640;23.310;2022-11-11T12:41:39;7.03;;;4.88;;
11681;SDS011;5897;42.640;23.310;2022-11-11T12:44:13;5.88;;;4.72;;
11681;SDS011;5897;42.640;23.310;2022-11-11T12:46:50;5.68;;;4.70;;
11681;SDS011;5897;42.640;23.310;2022-11-11T12:49:46;6.18;;;4.90;;
11681;SDS011;5897;42.640;23.310;2022-11-11T12:52:22;6.68;;;5.57;;
11681;SDS011;5897;42.640;23.310;2022-11-11T12:55:04;7.63;;;5.60;;
11681;SDS011;5897;42.640;23.310;2022-11-11T12:57:42;7.85;;;5.40;;
11681;SDS011;5897;42.640;23.310;2022-11-11T13:00:21;6.03;;;4.93;;
11681;SDS011;5897;42.640;23.310;2022-11-11T13:02:59;8.23;;;6.03;;
11681;SDS011;5897;42.640;23.310;2022-11-11T13:05:35;10.43;;;5.90;;
11681;SDS011;5897;42.640;23.310;2022-11-11T13:08:19;8.63;;;5.88;;
11681;SDS011;5897;42.640;23.310;2022-11-11T13:11:07;8.05;;;5.65;;
11681;SDS011;5897;42.640;23.310;2022-11-11T13:13:46;13.00;;;10.80;;
11681;SDS011;5897;42.640;23.310;2022-11-11T13:16:20;9.75;;;7.32;;
11681;SDS011;5897;42.640;23.310;2022-11-11T13:18:52;8.07;;;5.95;;
11681;SDS011;5897;42.640;23.310;2022-11-11T13:21:24;7.10;;;5.50;;
11681;SDS011;5897;42.640;23.310;2022-11-11T13:23:57;6.13;;;5.18;;
11681;SDS011;5897;42.640;23.310;2022-11-11T13:26:25;8.50;;;5.78;;
11681;SDS011;5897;42.640;23.310;2022-11-11T13:29:00;7.25;;;4.97;;
11681;SDS011;5897;42.640;23.310;2022-11-11T13:31:41;9.02;;;6.30;;
11681;SDS011;5897;42.640;23.310;2022-11-11T13:34:13;8.95;;;5.70;;
11681;SDS011;5897;42.640;23.310;2022-11-11T13:36:41;6.63;;;5.38;;
11681;SDS011;5897;42.640;23.310;2022-11-11T13:39:20;8.40;;;5.28;;
11681;SDS011;5897;42.640;23.310;2022-11-11T13:41:51;5.80;;;4.68;;
11681;SDS011;5897;42.640;23.310;2022-11-11T13:44:22;6.53;;;5.15;;
11681;SDS011;5897;42.640;23.310;2022-11-11T13:46:51;7.47;;;5.72;;
11681;SDS011;5897;42.640;23.310;2022-11-11T13:49:27;6.97;;;5.65;;
11681;SDS011;5897;42.640;23.310;2022-11-11T13:51:57;6.28;;;5.45;;
11681;SDS011;5897;42.640;23.310;2022-11-11T13:54:26;6.00;;;4.85;;
11681;SDS011;5897;42.640;23.310;2022-11-11T13:57:00;5.88;;;5.07;;
11681;SDS011;5897;42.640;23.310;2022-11-11T13:59:30;5.93;;;5.30;;
11681;SDS011;5897;42.640;23.310;2022-11-11T14:02:12;5.78;;;4.97;;
11681;SDS011;5897;42.640;23.310;2022-11-11T14:07:49;6.13;;;5.20;;
11681;SDS011;5897;42.640;23.310;2022-11-11T14:13:34;7.25;;;5.90;;
11681;SDS011;5897;42.640;23.310;2022-11-11T14:16:10;6.80;;;5.93;;
11681;SDS011;5897;42.640;23.310;2022-11-11T14:18:43;9.38;;;6.22;;
11681;SDS011;5897;42.640;23.310;2022-11-11T14:21:12;9.98;;;6.00;;
11681;SDS011;5897;42.640;23.310;2022-11-11T14:24:09;9.30;;;6.63;;
11681;SDS011;5897;42.640;23.310;2022-11-11T14:26:36;8.57;;;6.10;;
11681;SDS011;5897;42.640;23.310;2022-11-11T14:29:03;11.57;;;6.05;;
11681;SDS011;5897;42.640;23.310;2022-11-11T14:34:26;11.18;;;7.10;;
11681;SDS011;5897;42.640;23.310;2022-11-11T14:37:08;8.55;;;6.60;;
11681;SDS011;5897;42.640;23.310;2022-11-11T14:39:49;9.63;;;7.20;;
11681;SDS011;5897;42.640;23.310;2022-11-11T14:54:33;13.93;;;8.88;;
11681;SDS011;5897;42.640;23.310;2022-11-11T14:57:20;16.23;;;8.95;;
11681;SDS011;5897;42.640;23.310;2022-11-11T14:59:50;10.80;;;8.55;;
11681;SDS011;5897;42.640;23.310;2022-11-11T15:02:21;12.38;;;8.02;;
11681;SDS011;5897;42.640;23.310;2022-11-11T15:04:52;12.10;;;9.02;;
11681;SDS011;5897;42.640;23.310;2022-11-11T15:07:38;16.20;;;10.23;;
11681;SDS011;5897;42.640;23.310;2022-11-11T15:10:24;12.23;;;9.13;;
11681;SDS011;5897;42.640;23.310;2022-11-11T15:13:09;13.90;;;10.27;;
11681;SDS011;5897;42.640;23.310;2022-11-11T15:15:48;11.00;;;9.68;;
11681;SDS011;5897;42.640;23.310;2022-11-11T15:18:28;12.70;;;9.43;;
11681;SDS011;5897;42.640;23.310;2022-11-11T15:21:11;16.02;;;9.75;;